Time;durP1;ratioP1;P1;durP2;ratioP2;P2;SDS_P1;SDS_P2;PMS_P1;PMS_P2;Temp;Humidity;BMP_temperature;BMP_pressure;BME280_temperature;BME280_humidity;BME280_pressure;Samples;Min_cycle;Max_cycle;Signal;HPM_P1;HPM_P2
2022/08/16 00:01:40;;;;;;;;;;;;;;;18.58;nan;100392.88;5053013;28;19917;-60
2022/08/16 00:04:05;;;;;;;;;;;;;;;18.58;nan;100398.19;5054230;28;19916;-63
2022/08/16 00:06:31;;;;;;;;;;;;;;;18.52;nan;100395.97;5053192;28;19972;-62
2022/08/16 00:08:56;;;;;;;;;;;;;;;18.57;nan;100407.16;5054097;28;20331;-61
2022/08/16 00:11:21;;;;;;;;;;;;;;;18.58;nan;100405.34;5054169;28;19912;-61
2022/08/16 00:13:47;;;;;;;;;;;;;;;18.57;nan;100404.47;5054029;28;19912;-62
2022/08/16 00:16:12;;;;;;;;;;;;;;;18.56;nan;100412.59;5054137;28;19912;-60
2022/08/16 00:18:37;;;;;;;;;;;;;;;18.54;nan;100405.56;5054172;28;19916;-60
2022/08/16 00:21:03;;;;;;;;;;;;;;;18.53;nan;100411.84;5054016;28;19930;-61
2022/08/16 00:23:28;;;;;;;;;;;;;;;18.53;nan;100413.69;5053969;28;20375;-61
2022/08/16 00:25:53;;;;;;;;;;;;;;;18.52;nan;100401.31;5053861;28;19913;-62
2022/08/16 00:28:19;;;;;;;;;;;;;;;18.50;nan;100408.56;5053654;28;20334;-61
2022/08/16 00:30:44;;;;;;;;;;;;;;;18.48;nan;100406.00;5054012;28;19956;-61
2022/08/16 00:33:09;;;;;;;;;;;;;;;18.47;nan;100414.94;5054246;28;19920;-62
2022/08/16 00:35:35;;;;;;;;;;;;;;;18.45;nan;100414.19;5053653;28;19916;-60
2022/08/16 00:38:02;;;;;;;;;;;;;;;18.43;nan;100409.91;5052294;28;20300;-59
2022/08/16 00:40:38;;;;;;;;;;;;;;;18.42;nan;100410.88;5052257;28;19943;-60
2022/08/16 00:43:05;;;;;;;;;;;;;;;18.45;nan;100415.97;5053654;28;19913;-60
2022/08/16 00:45:57;;;;;;;;;;;;;;;18.47;nan;100414.09;5053385;28;20379;-60
2022/08/16 00:48:22;;;;;;;;;;;;;;;18.49;nan;100409.50;5051404;28;19920;-61
2022/08/16 00:50:47;;;;;;;;;;;;;;;18.49;nan;100407.72;5052330;28;19921;-61
2022/08/16 00:53:14;;;;;;;;;;;;;;;18.53;nan;100411.84;5051642;28;19943;-61
2022/08/16 00:55:40;;;;;;;;;;;;;;;18.54;nan;100413.56;5052133;28;20014;-60
2022/08/16 00:58:06;;;;;;;;;;;;;;;18.60;nan;100417.59;5053319;28;19913;-60
2022/08/16 01:00:31;;;;;;;;;;;;;;;18.64;nan;100418.22;5052076;28;19912;-60
2022/08/16 01:02:57;;;;;;;;;;;;;;;18.65;nan;100415.44;5053281;28;19948;-60
2022/08/16 01:05:22;;;;;;;;;;;;;;;18.68;nan;100417.88;5051900;28;19917;-60
2022/08/16 01:07:48;;;;;;;;;;;;;;;18.72;nan;100416.69;5053131;28;19966;-61
2022/08/16 01:10:13;;;;;;;;;;;;;;;18.73;nan;100415.75;5051877;28;19920;-62
2022/08/16 01:12:38;;;;;;;;;;;;;;;18.75;nan;100408.47;5051813;28;20275;-60
2022/08/16 01:15:03;;;;;;;;;;;;;;;18.74;nan;100405.94;5051997;28;19913;-61
2022/08/16 01:17:29;;;;;;;;;;;;;;;18.72;nan;100406.03;5052497;28;19965;-59
2022/08/16 01:19:56;;;;;;;;;;;;;;;18.66;nan;100402.97;5051735;28;19913;-60
2022/08/16 01:22:25;;;;;;;;;;;;;;;18.63;nan;100390.72;5051533;28;19932;-61
2022/08/16 01:24:51;;;;;;;;;;;;;;;18.61;nan;100400.63;5053037;28;19912;-61
2022/08/16 01:27:21;;;;;;;;;;;;;;;18.61;nan;100408.63;5051621;28;20260;-60
2022/08/16 01:29:59;;;;;;;;;;;;;;;18.59;nan;100391.91;5068177;28;19964;-61
2022/08/16 01:32:26;;;;;;;;;;;;;;;18.58;nan;100400.88;5050992;28;19917;-59
2022/08/16 01:34:51;;;;;;;;;;;;;;;18.56;nan;100397.47;5052241;28;19931;-59
2022/08/16 01:37:16;;;;;;;;;;;;;;;18.53;nan;100403.00;5050905;28;19913;-60
2022/08/16 01:39:41;;;;;;;;;;;;;;;18.51;nan;100400.44;5052722;28;19912;-60
2022/08/16 01:42:07;;;;;;;;;;;;;;;18.48;nan;100400.66;5052686;28;19975;-60
2022/08/16 01:44:33;;;;;;;;;;;;;;;18.47;nan;100396.28;5034737;28;19913;-60
2022/08/16 01:46:58;;;;;;;;;;;;;;;18.44;nan;100401.84;5052614;28;19958;-60
2022/08/16 01:49:26;;;;;;;;;;;;;;;18.40;nan;100397.66;5052434;28;20295;-59
2022/08/16 01:51:57;;;;;;;;;;;;;;;18.35;nan;100407.81;5052461;28;19920;-61
2022/08/16 01:54:22;;;;;;;;;;;;;;;18.32;nan;100397.38;5052399;28;19959;-61
2022/08/16 01:56:47;;;;;;;;;;;;;;;18.29;nan;100410.06;5034558;28;19952;-59
2022/08/16 01:59:14;;;;;;;;;;;;;;;18.25;nan;100405.88;5052347;28;19913;-60
2022/08/16 02:01:39;;;;;;;;;;;;;;;18.21;nan;100413.28;5051237;28;19923;-61
2022/08/16 02:04:05;;;;;;;;;;;;;;;18.18;nan;100412.63;5052363;28;19913;-60
2022/08/16 02:06:30;;;;;;;;;;;;;;;18.16;nan;100412.72;5052577;28;20275;-59
2022/08/16 02:08:56;;;;;;;;;;;;;;;18.15;nan;100415.50;5052541;28;19913;-61
2022/08/16 02:11:21;;;;;;;;;;;;;;;;;;5052444;28;20007;-60
2022/08/16 02:13:46;;;;;;;;;;;;;;;;;;5052395;28;19920;-60
2022/08/16 02:16:11;;;;;;;;;;;;;;;;;;5052305;28;20019;-60
2022/08/16 02:18:37;;;;;;;;;;;;;;;;;;5052165;28;20538;-60
2022/08/16 02:21:02;;;;;;;;;;;;;;;;;;5052395;28;19925;-60
2022/08/16 02:23:27;;;;;;;;;;;;;;;;;;5052204;28;19982;-59
2022/08/16 02:25:52;;;;;;;;;;;;;;;;;;5052417;28;20455;-58
2022/08/16 02:28:17;;;;;;;;;;;;;;;;;;5052714;28;20430;-60
2022/08/16 02:30:42;;;;;;;;;;;;;;;;;;5055948;28;20246;-61
2022/08/16 02:33:07;;;;;;;;;;;;;;;;;;5056036;28;19966;-60
2022/08/16 02:35:32;;;;;;;;;;;;;;;;;;5055808;28;19966;-60
2022/08/16 02:37:57;;;;;;;;;;;;;;;;;;5056089;28;19982;-60
2022/08/16 02:40:23;;;;;;;;;;;;;;;;;;5056115;28;19920;-59
2022/08/16 02:42:48;;;;;;;;;;;;;;;;;;5055937;28;19913;-59
2022/08/16 02:45:13;;;;;;;;;;;;;;;;;;5055836;28;20316;-60
2022/08/16 02:47:38;;;;;;;;;;;;;;;;;;5055757;28;20361;-59
2022/08/16 02:50:03;;;;;;;;;;;;;;;;;;5055581;28;19920;-59
2022/08/16 02:52:28;;;;;;;;;;;;;;;;;;5055848;28;19912;-59
2022/08/16 02:54:53;;;;;;;;;;;;;;;;;;5054040;28;20167;-59
2022/08/16 02:57:19;;;;;;;;;;;;;;;;;;5055456;28;20007;-61
2022/08/16 02:59:45;;;;;;;;;;;;;;;;;;5055519;28;19912;-60
2022/08/16 03:02:10;;;;;;;;;;;;;;;;;;5055516;28;19917;-60
2022/08/16 03:04:35;;;;;;;;;;;;;;;;;;5055301;28;20385;-58
2022/08/16 03:07:00;;;;;;;;;;;;;;;;;;5055604;28;19923;-61
2022/08/16 03:09:25;;;;;;;;;;;;;;;;;;5054182;28;19945;-61
2022/08/16 03:11:50;;;;;;;;;;;;;;;;;;5054146;28;19916;-60
2022/08/16 03:14:15;;;;;;;;;;;;;;;;;;5055272;28;20360;-60
2022/08/16 03:16:40;;;;;;;;;;;;;;;;;;5055126;28;20422;-60
2022/08/16 03:19:06;;;;;;;;;;;;;;;;;;5055214;28;19920;-60
2022/08/16 03:21:31;;;;;;;;;;;;;;;;;;5055323;28;19908;-60
2022/08/16 03:23:56;;;;;;;;;;;;;;;;;;5055341;28;20069;-60
2022/08/16 03:26:21;;;;;;;;;;;;;;;;;;5054911;28;19920;-59
2022/08/16 03:28:47;;;;;;;;;;;;;;;;;;5054889;28;19912;-60
2022/08/16 03:31:12;;;;;;;;;;;;;;;;;;5055020;28;19912;-60
2022/08/16 03:33:37;;;;;;;;;;;;;;;;;;5055190;28;20023;-59
2022/08/16 03:36:02;;;;;;;;;;;;;;;;;;5054983;28;20012;-61
2022/08/16 03:38:27;;;;;;;;;;;;;;;;;;5054776;28;20007;-59
2022/08/16 03:40:53;;;;;;;;;;;;;;;;;;5054629;28;19909;-59
2022/08/16 03:43:18;;;;;;;;;;;;;;;;;;5054846;28;20007;-59
2022/08/16 03:45:43;;;;;;;;;;;;;;;;;;5054682;28;20314;-60
2022/08/16 03:48:08;;;;;;;;;;;;;;;;;;5054633;28;20307;-60
2022/08/16 03:50:34;;;;;;;;;;;;;;;;;;5054437;28;19921;-60
2022/08/16 03:52:59;;;;;;;;;;;;;;;;;;5054563;28;19962;-59
2022/08/16 03:55:24;;;;;;;;;;;;;;;;;;5054120;28;19928;-59
2022/08/16 03:57:52;;;;;;;;;;;;;;;;;;5053187;28;19912;-61
2022/08/16 04:00:17;;;;;;;;;;;;;;;;;;5054536;28;20006;-60
2022/08/16 04:02:42;;;;;;;;;;;;;;;;;;5054204;28;20050;-59
2022/08/16 04:05:07;;;;;;;;;;;;;;;;;;5052973;28;19955;-59
2022/08/16 04:07:33;;;;;;;;;;;;;;;;;;5054346;28;20001;-59
2022/08/16 04:09:58;;;;;;;;;;;;;;;;;;5054393;28;19920;-60
2022/08/16 04:12:23;;;;;;;;;;;;;;;;;;5054331;28;19916;-60
2022/08/16 04:14:48;;;;;;;;;;;;;;;;;;5054606;28;19908;-60
2022/08/16 04:17:14;;;;;;;;;;;;;;;;;;5053984;28;19970;-59
2022/08/16 04:19:40;;;;;;;;;;;;;;;;;;5052581;28;19916;-60
2022/08/16 04:22:05;;;;;;;;;;;;;;;;;;5054274;28;19955;-59
2022/08/16 04:24:30;;;;;;;;;;;;;;;;;;5054740;28;19912;-60
2022/08/16 04:26:55;;;;;;;;;;;;;;;;;;5053841;28;20012;-61
2022/08/16 04:29:20;;;;;;;;;;;;;;;;;;5053940;28;20000;-60
2022/08/16 04:31:45;;;;;;;;;;;;;;;;;;5053880;28;19944;-61
2022/08/16 04:34:11;;;;;;;;;;;;;;;;;;5053720;28;19958;-61
2022/08/16 04:36:36;;;;;;;;;;;;;;;22.55;62.36;58178.75;5053991;28;19948;-61
2022/08/16 04:39:01;;;;;;;;;;;;;;;;;;5053869;28;19917;-62
2022/08/16 04:41:30;;;;;;;;;;;;;;;;;;5053789;28;19913;-60
2022/08/16 04:43:55;;;;;;;;;;;;;;;;;;5053689;28;19908;-61
2022/08/16 04:46:20;;;;;;;;;;;;;;;;;;5053492;28;19913;-60
2022/08/16 04:48:45;;;;;;;;;;;;;;;;;;5053521;28;19920;-61
2022/08/16 04:51:10;;;;;;;;;;;;;;;;;;5052900;28;19917;-60
2022/08/16 04:53:35;;;;;;;;;;;;;;;;;;5053587;28;19913;-60
2022/08/16 04:56:00;;;;;;;;;;;;;;;;;;5053394;28;20043;-60
2022/08/16 04:58:26;;;;;;;;;;;;;;;;;;5053091;28;19912;-59
2022/08/16 05:00:51;;;;;;;;;;;;;;;;;;5052019;28;20270;-60
2022/08/16 05:03:16;;;;;;;;;;;;;;;;;;5051889;28;19962;-59
2022/08/16 05:05:41;;;;;;;;;;;;;;;;;;5053342;28;20295;-61
2022/08/16 05:08:06;;;;;;;;;;;;;;;;;;5053345;28;19912;-60
2022/08/16 05:10:31;;;;;;;;;;;;;;;;;;5053028;28;19995;-59
2022/08/16 05:12:57;;;;;;;;;;;;;;;22.55;62.82;45882.00;5053121;28;20000;-60
2022/08/16 05:15:22;;;;;;;;;;;;;;;;;;5053025;28;19960;-61
2022/08/16 05:17:47;;;;;;;;;;;;;;;;;;5051571;28;19913;-60
2022/08/16 05:20:12;;;;;;;;;;;;;;;;;;5052024;28;20346;-60
2022/08/16 05:22:38;;;;;;;;;;;;;;;;;;5052980;28;20004;-60
2022/08/16 05:25:04;;;;;;;;;;;;;;;22.55;62.82;46246.00;5052848;28;19970;-58
2022/08/16 05:27:29;;;;;;;;;;;;;;;;;;5051600;28;20322;-60
2022/08/16 05:29:54;;;;;;;;;;;;;;;;;;5051370;28;19995;-60
2022/08/16 05:32:19;;;;;;;;;;;;;;;;;;5052682;28;19940;-60
2022/08/16 05:34:44;;;;;;;;;;;;;;;;;;5052974;28;20007;-60
2022/08/16 05:37:09;;;;;;;;;;;;;;;;;;5052811;28;19919;-59
2022/08/16 05:39:34;;;;;;;;;;;;;;;;;;5052744;28;19954;-60
2022/08/16 05:42:00;;;;;;;;;;;;;;;;;;5052882;28;19913;-60
2022/08/16 05:44:25;;;;;;;;;;;;;;;;;;5052643;28;19912;-59
2022/08/16 05:46:50;;;;;;;;;;;;;;;;;;5051178;28;19912;-60
2022/08/16 05:49:15;;;;;;;;;;;;;;;;;;5052627;28;19923;-58
2022/08/16 05:51:40;;;;;;;;;;;;;;;;;;5052575;28;19968;-59
2022/08/16 05:54:06;;;;;;;;;;;;;;;22.55;62.85;45263.00;5052541;28;19999;-59
2022/08/16 05:56:31;;;;;;;;;;;;;;;22.55;62.85;45775.91;5052598;28;19920;-60
2022/08/16 05:58:56;;;;;;;;;;;;;;;22.62;100.00;-19148.25;5053088;28;19924;-61
2022/08/16 06:01:21;;;;;;;;;;;;;;;22.55;87.42;58178.75;5051772;28;19925;-60
2022/08/16 06:03:47;;;;;;;;;;;;;;;;;;5053173;28;19917;-60
2022/08/16 06:06:12;;;;;;;;;;;;;;;;;;5057006;28;19912;-60
2022/08/16 06:08:37;;;;;;;;;;;;;;;;;;5055753;28;19959;-60
2022/08/16 06:11:02;;;;;;;;;;;;;;;;;;5056572;28;19913;-60
2022/08/16 06:13:27;;;;;;;;;;;;;;;;;;5056559;28;19912;-60
2022/08/16 06:15:53;;;;;;;;;;;;;;;;;;5056408;28;19975;-61
2022/08/16 06:18:18;;;;;;;;;;;;;;;;;;5056346;28;20445;-59
2022/08/16 06:20:43;;;;;;;;;;;;;;;;;;5055070;28;19924;-61
2022/08/16 06:23:08;;;;;;;;;;;;;;;;;;5056501;28;19963;-60
2022/08/16 06:25:33;;;;;;;;;;;;;;;;;;5055084;28;19912;-59
2022/08/16 06:27:58;;;;;;;;;;;;;;;;;;5056240;28;19912;-59
2022/08/16 06:30:23;;;;;;;;;;;;;;;;;;5056018;28;19913;-58
2022/08/16 06:32:49;;;;;;;;;;;;;;;;;;5054737;28;19920;-59
2022/08/16 06:35:14;;;;;;;;;;;;;;;;;;5056293;28;19913;-60
2022/08/16 06:37:39;;;;;;;;;;;;;;;;;;5055855;28;19920;-58
2022/08/16 06:40:04;;;;;;;;;;;;;;;;;;5055963;28;20006;-60
2022/08/16 06:42:29;;;;;;;;;;;;;;;;;;5055940;28;19913;-60
2022/08/16 06:44:55;;;;;;;;;;;;;;;;;;5055904;28;19930;-59
2022/08/16 06:47:20;;;;;;;;;;;;;;;;;;5054578;28;20014;-60
2022/08/16 06:49:45;;;;;;;;;;;;;;;;;;5055840;28;20011;-59
2022/08/16 06:52:10;;;;;;;;;;;;;;;;;;5055777;28;19928;-60
2022/08/16 06:54:35;;;;;;;;;;;;;;;;;;5055431;28;19917;-59
2022/08/16 06:57:00;;;;;;;;;;;;;;;;;;5055637;28;19913;-54
2022/08/16 06:59:25;;;;;;;;;;;;;;;;;;5055601;28;20026;-59
2022/08/16 07:01:50;;;;;;;;;;;;;;;;;;5055597;28;19912;-59
2022/08/16 07:04:15;;;;;;;;;;;;;;;;;;5055484;28;19995;-58
2022/08/16 07:06:40;;;;;;;;;;;;;;;;;;5055889;28;20259;-56
2022/08/16 07:09:06;;;;;;;;;;;;;;;;;;5055661;28;20295;-60
2022/08/16 07:11:31;;;;;;;;;;;;;;;;;;5055250;28;19916;-59
2022/08/16 07:13:56;;;;;;;;;;;;;;;;;;5054838;28;19966;-60
2022/08/16 07:16:21;;;;;;;;;;;;;;;;;;5054907;28;20011;-59
2022/08/16 07:18:46;;;;;;;;;;;;;;;;;;5053768;28;20455;-58
2022/08/16 07:21:11;;;;;;;;;;;;;;;;;;5055301;28;19928;-61
2022/08/16 07:23:37;;;;;;;;;;;;;;;;;;5055276;28;19909;-59
2022/08/16 07:26:02;;;;;;;;;;;;;;;;;;5055085;28;19974;-59
2022/08/16 07:28:27;;;;;;;;;;;;;;;;;;5054989;28;19919;-59
2022/08/16 07:30:52;;;;;;;;;;;;;;;;;;5055010;28;19913;-59
2022/08/16 07:33:17;;;;;;;;;;;;;;;;;;5054885;28;19944;-60
2022/08/16 07:35:42;;;;;;;;;;;;;;;;;;5054890;28;19913;-62
2022/08/16 07:38:07;;;;;;;;;;;;;;;;;;5054935;28;20050;-62
2022/08/16 07:40:33;;;;;;;;;;;;;;;;;;5054930;28;19919;-59
2022/08/16 07:42:58;;;;;;;;;;;;;;;23.03;nan;100572.69;5054711;28;19919;-61
2022/08/16 07:45:23;;;;;;;;;;;;;;;23.30;nan;100578.28;5054702;28;19959;-62
2022/08/16 07:47:48;;;;;;;;;;;;;;;23.62;nan;100576.25;5053339;28;19913;-61
2022/08/16 07:50:15;;;;;;;;;;;;;;;23.83;nan;100584.19;5055212;28;19916;-62
2022/08/16 07:52:40;;;;;;;;;;;;;;;24.01;nan;100590.59;5054507;28;20410;-61
2022/08/16 07:55:06;;;;;;;;;;;;;;;24.44;nan;100595.53;5054573;28;19921;-59
2022/08/16 07:57:32;;;;;;;;;;;;;;;24.93;nan;100606.06;5054527;28;19913;-61
2022/08/16 07:59:59;;;;;;;;;;;;;;;25.23;nan;100606.78;5053242;28;19923;-60
2022/08/16 08:02:24;;;;;;;;;;;;;;;25.47;nan;100609.81;5054345;28;19917;-60
2022/08/16 08:04:49;;;;;;;;;;;;;;;25.53;nan;100615.47;5053340;28;19912;-61
2022/08/16 08:07:15;;;;;;;;;;;;;;;25.70;nan;100613.81;5054469;28;19916;-63
2022/08/16 08:09:41;;;;;;;;;;;;;;;25.83;nan;100611.59;5054060;28;19913;-60
2022/08/16 08:12:07;;;;;;;;;;;;;;;26.14;nan;100621.03;5054142;28;19917;-60
2022/08/16 08:14:33;;;;;;;;;;;;;;;26.53;nan;100612.59;5054170;28;19913;-59
2022/08/16 08:16:58;;;;;;;;;;;;;;;26.95;nan;100615.41;5054074;28;20307;-61
2022/08/16 08:19:24;;;;;;;;;;;;;;;27.21;nan;100632.44;5054304;28;19913;-63
2022/08/16 08:21:51;;;;;;;;;;;;;;;27.56;nan;100626.88;5054263;28;19916;-59
2022/08/16 08:24:17;;;;;;;;;;;;;;;27.67;nan;100632.00;5054149;28;19982;-60
2022/08/16 08:26:42;;;;;;;;;;;;;;;27.91;nan;100626.66;5053653;28;19956;-61
2022/08/16 08:29:07;;;;;;;;;;;;;;;28.14;nan;100639.59;5053767;28;20492;-60
2022/08/16 08:31:35;;;;;;;;;;;;;;;28.41;nan;100647.38;5053714;28;20009;-63
2022/08/16 08:34:00;;;;;;;;;;;;;;;28.71;nan;100651.31;5053603;28;19917;-60
2022/08/16 08:36:26;;;;;;;;;;;;;;;28.93;nan;100658.72;5051678;28;20008;-61
2022/08/16 08:38:52;;;;;;;;;;;;;;;29.05;nan;100660.03;5053253;28;20430;-59
2022/08/16 08:41:17;;;;;;;;;;;;;;;29.00;nan;100662.44;5053848;28;19917;-60
2022/08/16 08:43:42;;;;;;;;;;;;;;;29.09;nan;100663.25;5053310;28;19912;-62
2022/08/16 08:46:08;;;;;;;;;;;;;;;29.14;nan;100680.69;5052381;28;20379;-63
2022/08/16 08:48:33;;;;;;;;;;;;;;;29.28;nan;100685.44;5053830;28;20326;-62
2022/08/16 08:50:58;;;;;;;;;;;;;;;29.39;nan;100686.94;5053629;28;19947;-63
2022/08/16 08:53:25;;;;;;;;;;;;;;;29.41;nan;100698.44;5053463;28;20051;-63
2022/08/16 08:55:51;;;;;;;;;;;;;;;29.57;nan;100699.22;5052526;28;19920;-65
2022/08/16 08:58:16;;;;;;;;;;;;;;;29.51;nan;100696.38;5053281;28;19924;-66
2022/08/16 09:00:41;;;;;;;;;;;;;;;29.70;nan;100709.53;5051910;28;19916;-60
2022/08/16 09:03:06;;;;;;;;;;;;;;;29.82;nan;100702.72;5052854;28;20352;-61
2022/08/16 09:05:32;;;;;;;;;;;;;;;30.02;nan;100701.25;5053154;28;19916;-61
2022/08/16 09:07:57;;;;;;;;;;;;;;;30.03;nan;100719.25;5053314;28;19916;-61
2022/08/16 09:10:22;;;;;;;;;;;;;;;29.84;nan;100713.41;5053236;28;19921;-61
2022/08/16 09:12:48;;;;;;;;;;;;;;;29.91;nan;100711.69;5051570;28;20422;-64
2022/08/16 09:15:14;;;;;;;;;;;;;;;30.11;nan;100716.47;5052959;28;19912;-62
2022/08/16 09:17:39;;;;;;;;;;;;;;;30.25;nan;100733.03;5052952;28;19916;-64
2022/08/16 09:20:06;;;;;;;;;;;;;;;30.16;nan;100724.06;5052781;28;20002;-63
2022/08/16 09:22:31;;;;;;;;;;;;;;;30.46;nan;100735.97;5051536;28;20346;-64
2022/08/16 09:24:57;;;;;;;;;;;;;;;30.71;nan;100734.75;5052977;28;20012;-62
2022/08/16 09:27:22;;;;;;;;;;;;;;;31.06;nan;100739.56;5052849;28;19970;-61
2022/08/16 09:29:47;;;;;;;;;;;;;;;31.28;nan;100740.56;5051479;28;19972;-61
2022/08/16 09:32:12;;;;;;;;;;;;;;;31.52;nan;100743.06;5051473;28;20371;-63
2022/08/16 09:34:38;;;;;;;;;;;;;;;31.31;nan;100742.06;5051450;28;20299;-64
2022/08/16 09:37:03;;;;;;;;;;;;;;;31.15;nan;100741.19;5034693;28;19917;-61
2022/08/16 09:39:28;;;;;;;;;;;;;;;31.15;nan;100740.34;5052725;28;20382;-67
2022/08/16 09:41:55;;;;;;;;;;;;;;;31.29;nan;100744.13;5052622;28;19916;-63
2022/08/16 09:44:24;;;;;;;;;;;;;;;31.47;nan;100763.63;5050773;28;19912;-61
2022/08/16 09:46:49;;;;;;;;;;;;;;;31.71;nan;100750.66;5052719;28;19919;-62
2022/08/16 09:49:15;;;;;;;;;;;;;;;31.95;nan;100759.53;5052522;28;20003;-63
2022/08/16 09:51:40;;;;;;;;;;;;;;;31.93;nan;100764.34;5052567;28;19977;-64
2022/08/16 09:54:06;;;;;;;;;;;;;;;31.97;nan;100750.16;5051318;28;20435;-62
2022/08/16 09:56:32;;;;;;;;;;;;;;;32.10;nan;100755.81;5052423;28;19920;-62
2022/08/16 09:58:58;;;;;;;;;;;;;;;32.12;nan;100753.72;5052477;28;19913;-62
2022/08/16 10:01:23;;;;;;;;;;;;;;;31.80;nan;100759.56;5052684;28;19961;-66
2022/08/16 10:03:50;;;;;;;;;;;;;;;31.15;nan;100748.50;5052576;28;20368;-65
2022/08/16 10:06:16;;;;;;;;;;;;;;;30.65;nan;100744.47;5052345;28;20372;-63
2022/08/16 10:08:41;;;;;;;;;;;;;;;30.29;nan;100735.22;5034479;28;19983;-65
2022/08/16 10:13:50;;;;;;;;;;;;;;;30.52;nan;100746.13;5051365;28;19924;-62
2022/08/16 10:16:15;;;;;;;;;;;;;;;30.88;nan;100754.50;5052305;28;19917;-63
2022/08/16 10:18:40;;;;;;;;;;;;;;;31.13;nan;100748.69;5052458;28;19920;-59
2022/08/16 10:21:06;;;;;;;;;;;;;;;31.34;nan;100771.63;5051051;28;19920;-63
2022/08/16 10:23:31;;;;;;;;;;;;;;;31.35;nan;100770.59;5034306;28;19959;-64
2022/08/16 10:25:56;;;;;;;;;;;;;;;31.11;nan;100769.81;5050960;28;19912;-61
2022/08/16 10:28:22;;;;;;;;;;;;;;;30.94;nan;100761.97;5052120;28;19920;-63
2022/08/16 10:30:47;;;;;;;;;;;;;;;30.73;nan;100761.75;5052491;28;20360;-65
2022/08/16 10:33:13;;;;;;;;;;;;;;;30.65;nan;100746.34;5052772;28;20007;-63
2022/08/16 10:35:42;;;;;;;;;;;;;;;30.69;nan;100753.13;5051227;28;19921;-61
2022/08/16 10:38:07;;;;;;;;;;;;;;;30.79;nan;100759.16;5052365;28;19920;-63
2022/08/16 10:40:33;;;;;;;;;;;;;;;30.83;nan;100759.63;5050988;28;19913;-62
2022/08/16 10:43:01;;;;;;;;;;;;;;;30.76;nan;100767.69;5050707;28;19935;-62
2022/08/16 10:45:27;;;;;;;;;;;;;;;30.45;nan;100764.16;5050957;28;19913;-62
2022/08/16 10:47:52;;;;;;;;;;;;;;;30.29;nan;100761.50;5050892;28;19913;-60
2022/08/16 10:50:18;;;;;;;;;;;;;;;29.90;nan;100767.81;5053945;28;19928;-63
2022/08/16 10:52:43;;;;;;;;;;;;;;;29.62;nan;100763.81;5036933;28;19920;-62
2022/08/16 10:55:10;;;;;;;;;;;;;;;29.35;nan;100762.34;5053705;28;19920;-60
2022/08/16 10:57:35;;;;;;;;;;;;;;;29.15;nan;100762.84;5056586;28;19912;-61
2022/08/16 11:00:03;;;;;;;;;;;;;;;28.90;nan;100762.88;5055666;28;19917;-61
2022/08/16 11:02:29;;;;;;;;;;;;;;;28.65;nan;100757.59;5056905;28;19917;-64
2022/08/16 11:04:54;;;;;;;;;;;;;;;28.55;nan;100765.84;5055029;28;19923;-64
2022/08/16 11:07:19;;;;;;;;;;;;;;;28.54;nan;100768.75;5055446;28;20015;-62
2022/08/16 11:09:44;;;;;;;;;;;;;;;28.54;nan;100766.88;5055688;28;20311;-63
2022/08/16 11:12:11;;;;;;;;;;;;;;;28.53;nan;100772.44;5055164;28;20350;-67
2022/08/16 11:14:36;;;;;;;;;;;;;;;28.64;nan;100775.72;5056582;28;19943;-60
2022/08/16 11:17:02;;;;;;;;;;;;;;;28.98;nan;100770.97;5055235;28;19981;-62
2022/08/16 11:19:28;;;;;;;;;;;;;;;29.55;nan;100765.53;5055207;28;20329;-62
2022/08/16 11:21:54;;;;;;;;;;;;;;;29.96;nan;100764.41;5053797;28;20421;-62
2022/08/16 11:24:19;;;;;;;;;;;;;;;30.75;nan;100765.97;5054121;28;20003;-61
2022/08/16 11:26:44;;;;;;;;;;;;;;;31.42;nan;100785.97;5054203;28;20265;-64
2022/08/16 11:29:10;;;;;;;;;;;;;;;31.93;nan;100797.00;5053426;28;19920;-65
2022/08/16 11:31:35;;;;;;;;;;;;;;;32.43;nan;100799.75;5054728;28;19913;-62
2022/08/16 11:34:01;;;;;;;;;;;;;;;33.06;nan;100820.81;5053955;28;20363;-63
2022/08/16 11:36:26;;;;;;;;;;;;;;;33.46;nan;100818.44;5054649;28;20434;-61
2022/08/16 11:38:51;;;;;;;;;;;;;;;33.79;nan;100814.94;5053199;28;20007;-64
2022/08/16 11:41:17;;;;;;;;;;;;;;;34.31;nan;100819.00;5053259;28;19917;-62
2022/08/16 11:43:42;;;;;;;;;;;;;;;34.71;nan;100817.25;5053683;28;19912;-62
2022/08/16 11:46:10;;;;;;;;;;;;;;;34.83;nan;100826.53;5053584;28;19913;-62
2022/08/16 11:48:35;;;;;;;;;;;;;;;34.92;nan;100828.88;5053590;28;20016;-62
2022/08/16 11:51:01;;;;;;;;;;;;;;;34.87;nan;100825.09;5054915;28;19964;-67
2022/08/16 11:53:27;;;;;;;;;;;;;;;34.22;nan;100834.72;5054595;28;19996;-62
2022/08/16 11:55:53;;;;;;;;;;;;;;;33.46;nan;100824.75;5054295;28;19962;-62
2022/08/16 11:58:18;;;;;;;;;;;;;;;32.80;nan;100829.59;5053533;28;19913;-64
2022/08/16 12:00:44;;;;;;;;;;;;;;;31.90;nan;100830.06;5054484;28;19916;-63
2022/08/16 12:03:09;;;;;;;;;;;;;;;31.39;nan;100823.56;5052942;28;19963;-60
2022/08/16 12:05:35;;;;;;;;;;;;;;;31.11;nan;100818.75;5054234;28;19968;-62
2022/08/16 12:08:02;;;;;;;;;;;;;;;31.22;nan;100828.31;5052876;28;19912;-62
2022/08/16 12:10:27;;;;;;;;;;;;;;;30.95;nan;100828.88;5052714;28;20011;-62
2022/08/16 12:12:53;;;;;;;;;;;;;;;30.57;nan;100833.34;5054026;28;19968;-64
2022/08/16 12:15:18;;;;;;;;;;;;;;;30.30;nan;100821.06;5054116;28;20368;-63
2022/08/16 12:17:44;;;;;;;;;;;;;;;29.96;nan;100825.97;5052537;28;19920;-66
2022/08/16 12:20:14;;;;;;;;;;;;;;;29.64;nan;100834.16;5052594;28;19919;-63
2022/08/16 12:22:40;;;;;;;;;;;;;;;29.57;nan;100832.13;5053801;28;19912;-66
2022/08/16 12:25:10;;;;;;;;;;;;;;;29.62;nan;100838.91;5052696;28;20288;-67
2022/08/16 12:27:35;;;;;;;;;;;;;;;29.44;nan;100830.97;5053756;28;20363;-62
2022/08/16 12:30:01;;;;;;;;;;;;;;;29.24;nan;100835.91;5053884;28;19924;-63
2022/08/16 12:32:26;;;;;;;;;;;;;;;29.20;nan;100828.25;5053501;28;19994;-62
2022/08/16 12:34:51;;;;;;;;;;;;;;;29.29;nan;100829.97;5052302;28;19916;-62
2022/08/16 12:37:17;;;;;;;;;;;;;;;29.53;nan;100821.81;5053516;28;19979;-62
2022/08/16 12:39:42;;;;;;;;;;;;;;;30.08;nan;100839.00;5052644;28;19958;-63
2022/08/16 12:42:08;;;;;;;;;;;;;;;30.79;nan;100843.41;5052541;28;19919;-63
2022/08/16 12:44:34;;;;;;;;;;;;;;;31.52;nan;100851.91;5052317;28;19917;-62
2022/08/16 12:49:43;;;;;;;;;;;;;;;32.15;nan;100862.28;5051546;28;19936;-64
2022/08/16 12:52:08;;;;;;;;;;;;;;;32.24;nan;100873.94;5034795;28;19924;-65
2022/08/16 12:54:33;;;;;;;;;;;;;;;31.96;nan;100862.78;5051925;28;19971;-64
2022/08/16 12:57:00;;;;;;;;;;;;;;;31.90;nan;100874.47;5053198;28;19960;-64
2022/08/16 12:59:26;;;;;;;;;;;;;;;32.16;nan;100876.75;5052976;28;19956;-64
2022/08/16 13:01:51;;;;;;;;;;;;;;;32.73;nan;100885.03;5053365;28;19916;-63
2022/08/16 13:04:17;;;;;;;;;;;;;;;33.46;nan;100892.13;5053367;28;19917;-62
2022/08/16 13:06:42;;;;;;;;;;;;;;;33.52;nan;100885.88;5053457;28;20372;-63
2022/08/16 13:09:19;;;;;;;;;;;;;;;33.20;nan;100890.00;5053181;28;19928;-63
2022/08/16 13:11:47;;;;;;;;;;;;;;;32.74;nan;100892.19;5053002;28;20023;-65
2022/08/16 13:14:13;;;;;;;;;;;;;;;32.16;nan;100879.47;5052678;28;19919;-63
2022/08/16 13:16:38;;;;;;;;;;;;;;;32.34;nan;100889.97;5051792;28;20319;-63
2022/08/16 13:19:03;;;;;;;;;;;;;;;32.80;nan;100888.72;5052862;28;20374;-62
2022/08/16 13:21:29;;;;;;;;;;;;;;;33.49;nan;100886.25;5051555;28;19966;-64
2022/08/16 13:23:54;;;;;;;;;;;;;;;34.08;nan;100894.94;5053107;28;19924;-62
2022/08/16 13:26:19;;;;;;;;;;;;;;;34.69;nan;100895.91;5052900;28;19920;-62
2022/08/16 13:28:45;;;;;;;;;;;;;;;34.86;nan;100891.75;5052714;28;19935;-63
2022/08/16 13:31:10;;;;;;;;;;;;;;;34.92;nan;100897.25;5051694;28;19954;-63
2022/08/16 13:33:35;;;;;;;;;;;;;;;34.38;nan;100890.94;5052736;28;19919;-63
2022/08/16 13:36:01;;;;;;;;;;;;;;;33.82;nan;100887.41;5052605;28;19923;-62
2022/08/16 13:38:27;;;;;;;;;;;;;;;33.63;nan;100888.94;5052026;28;19978;-61
2022/08/16 13:40:53;;;;;;;;;;;;;;;33.22;nan;100893.34;5051467;28;20380;-63
2022/08/16 13:43:20;;;;;;;;;;;;;;;32.81;nan;100891.22;5051392;28;20372;-61
2022/08/16 13:45:45;;;;;;;;;;;;;;;32.28;nan;100881.50;5052286;28;19916;-65
2022/08/16 13:48:10;;;;;;;;;;;;;;;31.84;nan;100886.09;5052635;28;20346;-66
2022/08/16 13:50:36;;;;;;;;;;;;;;;31.39;nan;100884.28;5052614;28;19916;-62
2022/08/16 13:53:01;;;;;;;;;;;;;;;31.17;nan;100877.81;5052392;28;20015;-67
2022/08/16 13:55:27;;;;;;;;;;;;;;;30.93;nan;100867.13;5052314;28;19920;-63
2022/08/16 13:57:52;;;;;;;;;;;;;;;30.70;nan;100868.94;5051025;28;19917;-61
2022/08/16 14:00:17;;;;;;;;;;;;;;;30.30;nan;100864.50;5052267;28;19962;-62
2022/08/16 14:02:43;;;;;;;;;;;;;;;29.94;nan;100864.16;5052161;28;19954;-63
2022/08/16 14:05:08;;;;;;;;;;;;;;;29.55;nan;100858.59;5051347;28;19919;-63